createdAt,value
2023-03-15T00:01:47.786Z,99993.94
2023-03-15T00:04:01.037Z,99987.52
2023-03-15T00:06:14.304Z,99984.58
2023-03-15T00:08:27.124Z,99979.13
2023-03-15T00:10:43.100Z,99981.63
2023-03-15T00:12:56.414Z,99983.45
2023-03-15T00:15:10.172Z,99984.87
2023-03-15T00:17:23.837Z,99989.03
2023-03-15T00:19:36.956Z,99989.85
2023-03-15T00:21:49.827Z,99987.80
2023-03-15T00:24:02.625Z,99988.44
2023-03-15T00:26:15.716Z,99982.83
2023-03-15T00:28:28.260Z,99982.27
2023-03-15T00:30:41.161Z,99981.09
2023-03-15T00:32:55.728Z,99985.17
2023-03-15T00:35:08.954Z,99982.17
2023-03-15T00:37:22.087Z,99986.73
2023-03-15T00:39:38.853Z,99987.90
2023-03-15T00:41:57.885Z,99988.64
2023-03-15T00:44:11.237Z,99987.77
2023-03-15T00:46:24.666Z,99990.32
2023-03-15T00:48:38.125Z,99993.85
2023-03-15T00:50:50.964Z,99993.08
2023-03-15T00:53:04.314Z,99993.17
2023-03-15T00:55:20.749Z,99991.79
2023-03-15T00:57:35.658Z,99988.73
2023-03-15T00:59:48.870Z,99989.30
2023-03-15T01:02:01.587Z,99989.70
2023-03-15T01:04:14.811Z,99989.57
2023-03-15T01:06:29.380Z,99991.30
2023-03-15T01:08:44.195Z,99992.40
2023-03-15T01:10:56.905Z,99994.14
2023-03-15T01:13:09.603Z,99992.58
2023-03-15T01:15:22.871Z,99994.54
2023-03-15T01:17:35.541Z,99994.39
2023-03-15T01:19:48.274Z,99996.84
2023-03-15T01:22:00.919Z,99998.97
2023-03-15T01:24:18.544Z,99998.90
2023-03-15T01:26:31.333Z,100007.25
2023-03-15T01:28:44.509Z,100005.69
2023-03-15T01:30:59.772Z,100010.27
2023-03-15T01:33:13.490Z,100008.39
2023-03-15T01:35:26.706Z,100012.90
2023-03-15T01:37:39.185Z,100008.52
2023-03-15T01:39:54.870Z,100016.61
2023-03-15T01:42:08.391Z,100021.48
2023-03-15T01:44:23.005Z,100020.38
2023-03-15T01:46:37.848Z,100022.89
2023-03-15T01:49:19.520Z,100025.05
2023-03-15T01:51:37.966Z,100028.44
2023-03-15T01:53:56.366Z,100030.23
2023-03-15T01:56:13.006Z,100032.04
2023-03-15T01:58:27.549Z,100041.39
2023-03-15T02:00:42.705Z,100039.64
2023-03-15T02:03:01.401Z,100042.70
2023-03-15T02:05:21.048Z,100046.92
2023-03-15T02:07:35.730Z,100054.98
2023-03-15T02:09:57.441Z,100060.33
2023-03-15T02:12:12.481Z,100066.60
2023-03-15T02:14:25.337Z,100069.09
2023-03-15T02:16:38.796Z,100074.55
2023-03-15T02:18:53.363Z,100081.30
2023-03-15T02:21:18.145Z,100080.89
2023-03-15T02:23:33.088Z,100083.83
2023-03-15T02:25:53.468Z,100089.45
2023-03-15T02:28:09.310Z,100091.15
2023-03-15T02:30:22.315Z,100097.63
2023-03-15T02:32:35.398Z,100101.16
2023-03-15T02:34:48.007Z,100109.46
2023-03-15T02:37:01.174Z,100114.41
2023-03-15T02:39:25.641Z,100116.52
2023-03-15T02:41:41.204Z,100120.45
2023-03-15T02:43:57.593Z,100124.58
2023-03-15T02:46:11.459Z,100129.90
2023-03-15T02:48:24.880Z,100134.52
2023-03-15T02:50:38.003Z,100139.93
2023-03-15T02:52:50.901Z,100144.38
2023-03-15T02:55:04.043Z,100142.08
2023-03-15T02:57:17.479Z,100148.98
2023-03-15T02:59:30.875Z,100149.19
2023-03-15T03:01:43.708Z,100157.30
2023-03-15T03:03:57.621Z,100161.40
2023-03-15T03:06:10.830Z,100168.89
2023-03-15T03:08:23.816Z,100172.56
2023-03-15T03:10:37.094Z,100181.06
2023-03-15T03:12:54.275Z,100185.55
2023-03-15T03:15:19.225Z,100190.11
2023-03-15T03:17:31.797Z,100192.59
2023-03-15T03:19:44.672Z,100194.66
2023-03-15T03:21:58.549Z,100196.41
2023-03-15T03:24:11.628Z,100202.49
2023-03-15T03:26:29.152Z,100208.95
2023-03-15T03:28:42.846Z,100213.36
2023-03-15T03:30:57.483Z,100216.98
2023-03-15T03:33:10.776Z,100224.33
2023-03-15T03:35:23.402Z,100224.26
2023-03-15T03:37:36.859Z,100231.52
2023-03-15T03:39:54.827Z,100243.21
2023-03-15T03:42:08.269Z,100249.89
2023-03-15T03:44:21.527Z,100261.02
2023-03-15T03:46:35.044Z,100266.55
2023-03-15T03:48:48.569Z,100275.54
2023-03-15T03:51:02.088Z,100280.73
2023-03-15T03:53:15.000Z,100283.15
2023-03-15T03:55:28.051Z,100289.25
2023-03-15T03:57:41.099Z,100290.95
2023-03-15T03:59:53.920Z,100300.25
2023-03-15T04:02:06.986Z,100309.40
2023-03-15T04:04:20.514Z,100311.25
2023-03-15T04:06:33.013Z,100318.75
2023-03-15T04:08:47.153Z,100322.45
2023-03-15T04:11:05.925Z,100331.49
2023-03-15T04:13:21.265Z,100333.65
2023-03-15T04:15:34.413Z,100340.58
2023-03-15T04:17:47.726Z,100350.17
2023-03-15T04:20:00.394Z,100357.44
2023-03-15T04:22:16.446Z,100368.33
2023-03-15T04:24:45.602Z,100373.23
2023-03-15T04:27:15.619Z,100384.30
2023-03-15T04:29:44.988Z,100392.29
2023-03-15T04:32:07.873Z,100396.39
2023-03-15T04:34:40.011Z,100402.81
2023-03-15T04:37:03.360Z,100409.77
2023-03-15T04:39:45.744Z,100419.70
2023-03-15T04:42:33.512Z,100429.38
2023-03-15T04:45:12.601Z,100437.63
2023-03-15T04:47:47.208Z,100443.15
2023-03-15T04:50:32.760Z,100453.06
2023-03-15T04:53:23.999Z,100461.61
2023-03-15T04:55:55.651Z,100469.45
2023-03-15T04:58:24.316Z,100472.71
2023-03-15T05:00:49.092Z,100480.45
2023-03-15T05:03:34.370Z,100489.77
2023-03-15T05:06:09.260Z,100492.90
2023-03-15T05:08:42.708Z,100496.23
2023-03-15T05:11:13.927Z,100500.54
2023-03-15T05:13:59.476Z,100509.76
2023-03-15T05:16:41.277Z,100517.06
2023-03-15T05:19:19.704Z,100521.27
2023-03-15T05:21:52.488Z,100526.13
2023-03-15T05:24:22.551Z,100531.92
2023-03-15T05:26:42.920Z,100534.83
2023-03-15T05:29:02.138Z,100543.04
2023-03-15T05:31:24.000Z,100553.50
2023-03-15T05:33:59.326Z,100555.39
2023-03-15T05:36:29.925Z,100565.35
2023-03-15T05:39:04.184Z,100577.63
2023-03-15T05:41:40.051Z,100583.79
2023-03-15T05:44:14.336Z,100593.21
2023-03-15T05:46:45.762Z,100598.73
2023-03-15T05:49:15.618Z,100607.24
2023-03-15T05:51:39.208Z,100610.17
2023-03-15T05:54:10.191Z,100612.20
2023-03-15T05:56:46.032Z,100611.41
2023-03-15T05:59:19.037Z,100615.05
2023-03-15T06:01:50.085Z,100623.31
2023-03-15T06:04:10.793Z,100629.44
2023-03-15T06:06:23.978Z,100633.59
2023-03-15T06:08:36.825Z,100637.31
2023-03-15T06:10:50.340Z,100641.57
2023-03-15T06:13:03.670Z,100649.40
2023-03-15T06:15:17.219Z,100656.36
2023-03-15T06:17:30.915Z,100660.84
2023-03-15T06:19:43.950Z,100666.16
2023-03-15T06:21:57.036Z,100670.73
2023-03-15T06:24:21.459Z,100671.23
2023-03-15T06:26:35.660Z,100675.06
2023-03-15T06:28:50.479Z,100681.88
2023-03-15T06:31:07.625Z,100686.04
2023-03-15T06:33:25.463Z,100691.50
2023-03-15T06:35:38.733Z,100694.32
2023-03-15T06:37:54.122Z,100701.74
2023-03-15T06:40:09.881Z,100708.63
2023-03-15T06:42:26.393Z,100714.89
2023-03-15T06:44:40.939Z,100718.61
2023-03-15T06:46:54.207Z,100718.23
2023-03-15T06:49:07.125Z,100720.02
2023-03-15T06:51:20.600Z,100722.45
2023-03-15T06:53:33.510Z,100725.71
2023-03-15T06:55:49.190Z,100733.23
2023-03-15T06:58:02.530Z,100736.83
2023-03-15T07:00:18.868Z,100740.28
2023-03-15T07:02:34.887Z,100744.09
2023-03-15T07:04:49.256Z,100755.14
2023-03-15T07:07:02.305Z,100758.95
2023-03-15T07:09:15.883Z,100767.22
2023-03-15T07:11:28.993Z,100776.25
2023-03-15T07:13:42.973Z,100781.98
2023-03-15T07:16:01.325Z,100787.83
2023-03-15T07:18:14.050Z,100791.14
2023-03-15T07:20:26.832Z,100798.30
2023-03-15T07:22:39.720Z,100806.02
2023-03-15T07:24:52.395Z,100812.02
2023-03-15T07:27:04.895Z,100819.44
2023-03-15T07:29:18.238Z,100823.11
2023-03-15T07:31:31.609Z,100825.64
2023-03-15T07:33:44.942Z,100830.98
2023-03-15T07:35:59.653Z,100831.58
2023-03-15T07:38:12.955Z,100838.06
2023-03-15T07:40:27.506Z,100842.40
2023-03-15T07:42:40.152Z,100842.08
2023-03-15T07:44:53.225Z,100846.31
2023-03-15T07:47:06.082Z,100855.21
2023-03-15T07:49:19.243Z,100859.13
2023-03-15T07:51:32.064Z,100860.70
2023-03-15T07:53:45.315Z,100865.59
2023-03-15T07:55:58.185Z,100870.48
2023-03-15T07:58:11.193Z,100874.95
2023-03-15T08:00:25.851Z,100878.12
2023-03-15T08:02:38.389Z,100883.11
2023-03-15T08:04:52.454Z,100886.61
2023-03-15T08:07:04.962Z,100885.59
2023-03-15T08:09:15.001Z,100884.43
2023-03-15T08:11:27.878Z,100893.36
2023-03-15T08:13:41.094Z,100899.81
2023-03-15T08:15:54.449Z,100904.27
2023-03-15T08:18:07.571Z,100907.48
2023-03-15T08:20:20.607Z,100914.55
2023-03-15T08:22:33.743Z,100914.96
2023-03-15T08:24:49.237Z,100920.14
2023-03-15T08:27:01.907Z,100919.83
2023-03-15T08:29:15.030Z,100925.17
2023-03-15T08:31:29.230Z,100929.17
2023-03-15T08:33:42.975Z,100929.77
2023-03-15T08:36:00.107Z,100935.43
2023-03-15T08:38:13.445Z,100938.74
2023-03-15T08:40:29.456Z,100949.47
2023-03-15T08:42:42.559Z,100956.18
2023-03-15T08:44:55.422Z,100963.08
2023-03-15T08:47:08.327Z,100968.71
2023-03-15T08:49:21.375Z,100975.79
2023-03-15T08:51:33.715Z,100981.73
2023-03-15T08:53:47.383Z,100987.77
2023-03-15T08:56:00.043Z,100995.60
2023-03-15T08:58:13.952Z,101001.44
2023-03-15T09:00:28.797Z,101004.23
2023-03-15T09:02:43.308Z,101009.21
2023-03-15T09:04:56.906Z,101019.55
2023-03-15T09:07:09.818Z,101024.86
2023-03-15T09:09:22.815Z,101032.77
2023-03-15T09:11:35.768Z,101036.80
2023-03-15T09:13:49.487Z,101041.94
2023-03-15T09:16:04.556Z,101045.20
2023-03-15T09:18:17.410Z,101050.23
2023-03-15T09:20:30.765Z,101049.42
2023-03-15T09:22:43.774Z,101062.17
2023-03-15T09:24:56.740Z,101062.66
2023-03-15T09:27:09.992Z,101066.98
2023-03-15T09:29:22.529Z,101073.57
2023-03-15T09:31:35.202Z,101076.57
2023-03-15T09:33:48.657Z,101083.80
2023-03-15T09:36:01.266Z,101088.10
2023-03-15T09:38:14.639Z,101094.89
2023-03-15T09:40:29.665Z,101100.00
2023-03-15T09:42:58.978Z,101110.52
2023-03-15T09:45:25.191Z,101113.98
2023-03-15T09:47:50.079Z,101121.95
2023-03-15T09:50:08.072Z,101125.64
2023-03-15T09:52:35.309Z,101127.59
2023-03-15T09:54:55.000Z,101126.73
2023-03-15T09:57:09.972Z,101125.25
2023-03-15T09:59:23.876Z,101128.23
2023-03-15T10:01:39.405Z,101136.52
2023-03-15T10:03:55.901Z,101134.08
2023-03-15T10:06:16.241Z,101139.42
2023-03-15T10:08:30.434Z,101146.75
2023-03-15T10:10:50.430Z,101147.14
2023-03-15T10:13:17.315Z,101153.80
2023-03-15T10:15:45.401Z,101156.92
2023-03-15T10:18:18.267Z,101165.90
2023-03-15T10:20:36.051Z,101168.33
2023-03-15T10:22:57.692Z,101171.32
2023-03-15T10:25:19.242Z,101173.83
2023-03-15T10:27:40.531Z,101176.07
2023-03-15T10:29:55.920Z,101181.52
2023-03-15T10:32:19.038Z,101181.82
2023-03-15T10:34:33.857Z,101186.29
2023-03-15T10:36:55.550Z,101190.80
2023-03-15T10:39:08.388Z,101196.66
2023-03-15T10:41:32.522Z,101199.84
2023-03-15T10:43:45.670Z,101206.57
2023-03-15T10:46:08.569Z,101211.69
2023-03-15T10:48:21.425Z,101215.39
2023-03-15T10:50:35.864Z,101218.17
2023-03-15T10:52:51.707Z,101214.88
2023-03-15T10:55:08.747Z,101217.77
2023-03-15T10:57:23.313Z,101219.49
2023-03-15T10:59:37.979Z,101228.64
2023-03-15T11:01:54.483Z,101233.23
2023-03-15T11:04:19.545Z,101238.14
2023-03-15T11:06:40.583Z,101238.73
2023-03-15T11:08:53.329Z,101243.79
2023-03-15T11:11:05.938Z,101246.30
2023-03-15T11:13:25.347Z,101247.41
2023-03-15T11:15:38.190Z,101253.48
2023-03-15T11:17:53.233Z,101253.00
2023-03-15T11:20:14.562Z,101256.20
2023-03-15T11:22:27.206Z,101257.57
2023-03-15T11:24:40.174Z,101259.01
2023-03-15T11:26:54.444Z,101259.89
2023-03-15T11:29:11.046Z,101267.59
2023-03-15T11:31:24.447Z,101267.65
2023-03-15T11:33:56.979Z,101269.80
2023-03-15T11:36:17.605Z,101272.65
2023-03-15T11:38:36.891Z,101276.03
2023-03-15T11:40:54.087Z,101281.38
2023-03-15T11:43:09.819Z,101284.45
2023-03-15T11:45:27.270Z,101287.94
2023-03-15T11:47:55.013Z,101289.18
2023-03-15T11:50:07.936Z,101292.98
2023-03-15T11:52:22.982Z,101296.91
2023-03-15T11:54:37.437Z,101300.36
2023-03-15T11:56:59.534Z,101304.75
2023-03-15T11:59:18.531Z,101314.91
2023-03-15T12:01:32.685Z,101319.16
2023-03-15T12:03:47.976Z,101321.11
2023-03-15T12:06:07.088Z,101321.12
2023-03-15T12:08:42.958Z,101323.89
2023-03-15T12:10:56.005Z,101328.39
2023-03-15T12:13:25.618Z,101334.23
2023-03-15T12:15:55.135Z,101334.45
2023-03-15T12:18:09.486Z,101341.27
2023-03-15T12:20:31.429Z,101343.83
2023-03-15T12:22:47.695Z,101349.80
2023-03-15T12:25:02.512Z,101355.30
2023-03-15T12:27:21.927Z,101354.29
2023-03-15T12:29:36.526Z,101359.23
2023-03-15T12:32:08.678Z,101360.23
2023-03-15T12:34:31.821Z,101370.41
2023-03-15T12:36:49.451Z,101376.91
2023-03-15T12:39:22.713Z,101378.91
2023-03-15T12:41:44.855Z,101387.54
2023-03-15T12:43:55.158Z,101396.37
2023-03-15T12:46:08.455Z,101400.28
2023-03-15T12:48:31.122Z,101411.23
2023-03-15T12:50:53.964Z,101417.40
2023-03-15T12:53:08.564Z,101424.39
2023-03-15T12:55:24.440Z,101426.11
2023-03-15T12:57:49.761Z,101432.91
2023-03-15T13:00:07.423Z,101436.35
2023-03-15T13:02:44.101Z,101440.00
2023-03-15T13:05:06.677Z,101435.23
2023-03-15T13:07:36.827Z,101441.42
2023-03-15T13:10:13.398Z,101444.48
2023-03-15T13:12:32.754Z,101452.67
2023-03-15T13:14:53.134Z,101458.16
2023-03-15T13:17:18.528Z,101457.95
2023-03-15T13:19:35.838Z,101463.13
2023-03-15T13:22:02.768Z,101469.32
2023-03-15T13:24:26.582Z,101473.63
2023-03-15T13:26:51.319Z,101483.95
2023-03-15T13:29:11.568Z,101486.00
2023-03-15T13:31:29.318Z,101492.75
2023-03-15T13:33:44.216Z,101500.64
2023-03-15T13:36:02.269Z,101507.58
2023-03-15T13:38:25.251Z,101508.98
2023-03-15T13:40:37.835Z,101517.36
2023-03-15T13:42:50.500Z,101521.29
2023-03-15T13:45:19.821Z,101529.21
2023-03-15T13:47:32.557Z,101531.29
2023-03-15T13:49:45.738Z,101537.98
2023-03-15T13:51:59.354Z,101540.87
2023-03-15T13:54:16.880Z,101545.38
2023-03-15T13:56:46.932Z,101545.48
2023-03-15T13:59:03.595Z,101550.11
2023-03-15T14:01:17.944Z,101552.20
2023-03-15T14:03:31.968Z,101557.21
2023-03-15T14:05:52.594Z,101560.16
2023-03-15T14:08:07.279Z,101559.52
2023-03-15T14:10:34.338Z,101569.15
2023-03-15T14:12:47.327Z,101574.92
2023-03-15T14:15:02.633Z,101575.56
2023-03-15T14:17:28.642Z,101578.92
2023-03-15T14:19:41.863Z,101580.82
2023-03-15T14:21:59.041Z,101586.23
2023-03-15T14:24:20.625Z,101587.88
2023-03-15T14:26:35.995Z,101591.81
2023-03-15T14:28:55.325Z,101589.60
2023-03-15T14:31:09.069Z,101595.89
2023-03-15T14:33:33.491Z,101608.13
2023-03-15T14:35:50.085Z,101614.42
2023-03-15T14:38:12.818Z,101618.29
2023-03-15T14:40:35.960Z,101619.48
2023-03-15T14:42:49.138Z,101621.48
2023-03-15T14:45:02.116Z,101624.05
2023-03-15T14:47:19.372Z,101625.63
2023-03-15T14:49:33.139Z,101628.35
2023-03-15T14:51:46.692Z,101627.94
2023-03-15T14:54:02.252Z,101631.89
2023-03-15T14:56:18.661Z,101628.09
2023-03-15T14:58:32.828Z,101632.52
2023-03-15T15:00:46.487Z,101638.14
2023-03-15T15:03:00.508Z,101646.76
2023-03-15T15:05:25.876Z,101649.36
2023-03-15T15:07:39.222Z,101651.12
2023-03-15T15:09:54.426Z,101654.14
2023-03-15T15:12:08.058Z,101655.10
2023-03-15T15:14:23.029Z,101660.89
2023-03-15T15:16:35.938Z,101668.34
2023-03-15T15:18:49.031Z,101671.77
2023-03-15T15:21:05.103Z,101677.06
2023-03-15T15:23:22.005Z,101673.95
2023-03-15T15:25:36.608Z,101671.68
2023-03-15T15:27:50.311Z,101679.57
2023-03-15T15:30:03.539Z,101687.05
2023-03-15T15:32:16.616Z,101690.05
2023-03-15T15:34:30.174Z,101699.09
2023-03-15T15:36:46.405Z,101703.41
2023-03-15T15:39:03.450Z,101708.25
2023-03-15T15:41:25.217Z,101711.09
2023-03-15T15:43:38.277Z,101716.21
2023-03-15T15:45:51.758Z,101718.52
2023-03-15T15:48:07.035Z,101723.42
2023-03-15T15:50:21.540Z,101721.94
2023-03-15T15:52:35.000Z,101728.95
2023-03-15T15:54:49.687Z,101725.73
2023-03-15T15:57:04.063Z,101725.31
2023-03-15T15:59:18.816Z,101725.44
2023-03-15T16:01:32.584Z,101734.17
2023-03-15T16:03:45.875Z,101733.43
2023-03-15T16:05:58.848Z,101736.54
2023-03-15T16:08:17.965Z,101743.49
2023-03-15T16:10:35.901Z,101742.91
2023-03-15T16:12:49.208Z,101745.05
2023-03-15T16:15:03.629Z,101746.60
2023-03-15T16:17:22.636Z,101756.61
2023-03-15T16:19:36.377Z,101759.34
2023-03-15T16:21:51.850Z,101761.65
2023-03-15T16:24:08.463Z,101763.98
2023-03-15T16:26:22.469Z,101765.16
2023-03-15T16:28:35.953Z,101768.02
2023-03-15T16:30:49.052Z,101772.20
2023-03-15T16:33:02.646Z,101775.84
2023-03-15T16:35:18.487Z,101780.97
2023-03-15T16:37:33.312Z,101784.79
2023-03-15T16:39:53.791Z,101792.71
2023-03-15T16:42:06.382Z,101792.23
2023-03-15T16:44:20.357Z,101796.80
2023-03-15T16:46:33.303Z,101801.63
2023-03-15T16:48:46.147Z,101806.16
2023-03-15T16:50:58.975Z,101807.39
2023-03-15T16:53:13.595Z,101809.48
2023-03-15T16:55:30.753Z,101818.15
2023-03-15T16:57:44.519Z,101815.20
2023-03-15T16:59:57.461Z,101820.35
2023-03-15T17:02:20.895Z,101822.52
2023-03-15T17:04:34.788Z,101828.69
2023-03-15T17:09:10.371Z,101834.86
2023-03-15T17:11:23.387Z,101834.30
2023-03-15T17:13:41.721Z,101839.50
2023-03-15T17:15:54.315Z,101843.10
2023-03-15T17:18:09.523Z,101843.77
2023-03-15T17:20:29.492Z,101843.13
2023-03-15T17:22:44.318Z,101845.48
2023-03-15T17:24:57.562Z,101847.25
2023-03-15T17:27:14.628Z,101846.86
2023-03-15T17:29:27.074Z,101851.42
2023-03-15T17:31:40.805Z,101853.38
2023-03-15T17:33:53.947Z,101855.86
2023-03-15T17:36:08.402Z,101860.95
2023-03-15T17:38:24.568Z,101863.47
2023-03-15T17:40:38.887Z,101864.83
2023-03-15T17:42:52.674Z,101869.08
2023-03-15T17:45:05.832Z,101873.57
2023-03-15T17:47:18.904Z,101873.23
2023-03-15T17:49:32.066Z,101876.50
2023-03-15T17:51:46.436Z,101878.80
2023-03-15T17:54:00.487Z,101880.07
2023-03-15T17:56:14.267Z,101882.88
2023-03-15T17:58:28.525Z,101888.67
2023-03-15T18:00:41.304Z,101891.46
2023-03-15T18:02:56.360Z,101891.53
2023-03-15T18:05:10.654Z,101888.61
2023-03-15T18:07:24.971Z,101887.71
2023-03-15T18:09:37.941Z,101892.35
2023-03-15T18:11:51.468Z,101893.25
2023-03-15T18:14:04.471Z,101895.40
2023-03-15T18:16:17.978Z,101897.45
2023-03-15T18:18:30.780Z,101899.76
2023-03-15T18:20:44.630Z,101905.27
2023-03-15T18:22:57.477Z,101906.36
2023-03-15T18:25:13.790Z,101909.61
2023-03-15T18:27:26.542Z,101910.48
2023-03-15T18:29:39.106Z,101914.33
2023-03-15T18:31:51.679Z,101914.61
2023-03-15T18:34:04.686Z,101913.17
2023-03-15T18:36:17.600Z,101915.80
2023-03-15T18:38:31.112Z,101914.98
2023-03-15T18:40:44.970Z,101913.25
2023-03-15T18:42:58.390Z,101914.75
2023-03-15T18:45:19.354Z,101916.39
2023-03-15T18:47:33.681Z,101916.66
2023-03-15T18:49:46.360Z,101914.59
2023-03-15T18:52:00.762Z,101916.83
2023-03-15T18:54:13.569Z,101919.53
2023-03-15T18:56:27.191Z,101919.56
2023-03-15T18:58:39.351Z,101919.52
2023-03-15T19:00:50.152Z,101923.45
2023-03-15T19:03:03.991Z,101925.55
2023-03-15T19:05:17.892Z,101925.02
2023-03-15T19:07:30.871Z,101928.11
2023-03-15T19:09:43.503Z,101930.67
2023-03-15T19:11:56.208Z,101932.75
2023-03-15T19:14:08.701Z,101932.14
2023-03-15T19:16:21.567Z,101929.25
2023-03-15T19:18:35.903Z,101934.02
2023-03-15T19:20:49.074Z,101933.34
2023-03-15T19:23:02.132Z,101935.10
2023-03-15T19:25:16.569Z,101935.36
2023-03-15T19:27:29.682Z,101937.64
2023-03-15T19:29:42.396Z,101939.42
2023-03-15T19:31:55.013Z,101941.48
2023-03-15T19:34:07.585Z,101942.05
2023-03-15T19:36:20.226Z,101943.67
2023-03-15T19:38:33.021Z,101946.84
2023-03-15T19:40:45.967Z,101947.22
2023-03-15T19:42:59.120Z,101948.58
2023-03-15T19:45:13.442Z,101949.77
2023-03-15T19:47:26.437Z,101954.29
2023-03-15T19:49:39.334Z,101953.08
2023-03-15T19:51:52.594Z,101955.56
2023-03-15T19:54:06.733Z,101958.59
2023-03-15T19:56:21.278Z,101958.27
2023-03-15T19:58:35.531Z,101964.47
2023-03-15T20:00:48.529Z,101961.59
2023-03-15T20:03:01.504Z,101964.50
2023-03-15T20:05:16.327Z,101963.91
2023-03-15T20:07:29.003Z,101967.23
2023-03-15T20:09:42.971Z,101966.27
2023-03-15T20:11:55.792Z,101963.95
2023-03-15T20:14:08.454Z,101965.54
2023-03-15T20:16:21.515Z,101972.67
2023-03-15T20:18:34.520Z,101972.60
2023-03-15T20:20:47.384Z,101971.94
2023-03-15T20:23:00.128Z,101971.79
2023-03-15T20:25:14.111Z,101968.42
2023-03-15T20:27:26.952Z,101969.45
2023-03-15T20:29:40.644Z,101970.32
2023-03-15T20:31:54.318Z,101971.96
2023-03-15T20:34:08.004Z,101971.06
2023-03-15T20:36:21.480Z,101972.52
2023-03-15T20:38:38.449Z,101974.61
2023-03-15T20:40:56.352Z,101974.48
2023-03-15T20:43:11.423Z,101973.50
2023-03-15T20:45:25.365Z,101969.59
2023-03-15T20:47:38.796Z,101968.98
2023-03-15T20:49:52.695Z,101971.09
2023-03-15T20:52:06.330Z,101969.96
2023-03-15T20:54:19.272Z,101973.66
2023-03-15T20:56:32.905Z,101978.73
2023-03-15T20:58:45.622Z,101974.06
2023-03-15T21:01:06.385Z,101970.98
2023-03-15T21:03:20.017Z,101972.83
2023-03-15T21:05:33.446Z,101974.94
2023-03-15T21:07:47.245Z,101976.58
2023-03-15T21:10:00.427Z,101979.14
2023-03-15T21:12:13.351Z,101978.48
2023-03-15T21:14:26.248Z,101978.61
2023-03-15T21:16:39.109Z,101978.40
2023-03-15T21:18:53.506Z,101976.11
2023-03-15T21:21:08.330Z,101972.95
2023-03-15T21:23:21.107Z,101974.06
2023-03-15T21:25:33.819Z,101969.52
2023-03-15T21:27:48.776Z,101968.90
2023-03-15T21:30:01.364Z,101967.09
2023-03-15T21:32:14.623Z,101962.15
2023-03-15T21:34:27.528Z,101961.27
2023-03-15T21:36:40.269Z,101963.58
2023-03-15T21:38:53.327Z,101963.13
2023-03-15T21:41:10.171Z,101964.03
2023-03-15T21:43:23.201Z,101960.70
2023-03-15T21:45:35.914Z,101960.34
2023-03-15T21:47:49.125Z,101962.84
2023-03-15T21:50:03.124Z,101960.13
2023-03-15T21:52:17.494Z,101959.77
2023-03-15T21:54:31.127Z,101961.52
2023-03-15T21:56:44.214Z,101962.48
2023-03-15T21:58:58.325Z,101962.02
2023-03-15T22:01:14.858Z,101964.45
2023-03-15T22:03:27.960Z,101964.84
2023-03-15T22:05:42.875Z,101961.95
2023-03-15T22:07:56.160Z,101963.27
2023-03-15T22:10:10.740Z,101966.04
2023-03-15T22:12:26.332Z,101967.04
2023-03-15T22:14:39.234Z,101967.64
2023-03-15T22:16:52.892Z,101966.77
2023-03-15T22:19:05.673Z,101966.25
2023-03-15T22:21:18.615Z,101967.09
2023-03-15T22:23:31.492Z,101965.11
2023-03-15T22:25:44.954Z,101966.31
2023-03-15T22:27:57.751Z,101971.42
2023-03-15T22:30:15.271Z,101974.30
2023-03-15T22:32:28.196Z,101975.90
2023-03-15T22:34:41.483Z,101975.80
2023-03-15T22:36:54.399Z,101973.95
2023-03-15T22:39:08.814Z,101976.84
2023-03-15T22:41:25.114Z,101981.60
2023-03-15T22:43:38.561Z,101982.36
2023-03-15T22:45:51.866Z,101981.11
2023-03-15T22:48:05.330Z,101980.73
2023-03-15T22:50:19.326Z,101979.58
2023-03-15T22:52:32.041Z,101982.13
2023-03-15T22:54:44.717Z,101980.39
2023-03-15T22:56:57.465Z,101978.92
2023-03-15T22:59:10.217Z,101980.86
2023-03-15T23:01:23.395Z,101980.05
2023-03-15T23:03:36.377Z,101978.83
2023-03-15T23:05:49.089Z,101977.88
2023-03-15T23:08:01.876Z,101974.98
2023-03-15T23:10:16.223Z,101976.67
2023-03-15T23:12:35.826Z,101975.14
2023-03-15T23:14:50.761Z,101972.29
2023-03-15T23:17:04.490Z,101971.92
2023-03-15T23:19:17.095Z,101977.48
2023-03-15T23:21:29.798Z,101972.35
2023-03-15T23:23:43.842Z,101975.14
2023-03-15T23:25:56.616Z,101973.34
2023-03-15T23:28:11.215Z,101971.27
2023-03-15T23:30:25.413Z,101970.71
2023-03-15T23:32:39.333Z,101973.34
2023-03-15T23:34:52.184Z,101972.00
2023-03-15T23:37:04.969Z,101972.91
2023-03-15T23:39:17.897Z,101972.21
2023-03-15T23:41:30.786Z,101966.20
2023-03-15T23:43:43.834Z,101973.13
2023-03-15T23:46:01.229Z,101975.81
2023-03-15T23:48:14.707Z,101976.68
2023-03-15T23:50:28.503Z,101983.84
2023-03-15T23:52:41.572Z,101984.42
2023-03-15T23:54:55.066Z,101987.54
2023-03-15T23:57:08.091Z,101988.95
2023-03-15T23:59:20.949Z,101987.49
